sensor_id;sensor_type;location;lat;lon;timestamp;P1;durP1;ratioP1;P2;durP2;ratioP2
30243;SDS011;64022;53.652;9.792;2023-04-15T00:02:17;17.07;;;10.60;;
30243;SDS011;64022;53.652;9.792;2023-04-15T00:04:47;14.77;;;9.15;;
30243;SDS011;64022;53.652;9.792;2023-04-15T00:07:13;13.45;;;10.15;;
30243;SDS011;64022;53.652;9.792;2023-04-15T00:09:40;16.63;;;9.60;;
30243;SDS011;64022;53.652;9.792;2023-04-15T00:12:06;14.50;;;10.27;;
30243;SDS011;64022;53.652;9.792;2023-04-15T00:14:33;14.85;;;9.55;;
30243;SDS011;64022;53.652;9.792;2023-04-15T00:17:00;16.13;;;9.80;;
30243;SDS011;64022;53.652;9.792;2023-04-15T00:19:26;14.00;;;9.97;;
30243;SDS011;64022;53.652;9.792;2023-04-15T00:21:52;14.80;;;9.60;;
30243;SDS011;64022;53.652;9.792;2023-04-15T00:24:17;15.87;;;10.17;;
30243;SDS011;64022;53.652;9.792;2023-04-15T00:26:43;14.17;;;9.67;;
30243;SDS011;64022;53.652;9.792;2023-04-15T00:29:08;14.60;;;9.77;;
30243;SDS011;64022;53.652;9.792;2023-04-15T00:31:34;15.75;;;9.60;;
30243;SDS011;64022;53.652;9.792;2023-04-15T00:34:00;18.13;;;10.13;;
30243;SDS011;64022;53.652;9.792;2023-04-15T00:36:26;13.00;;;9.77;;
30243;SDS011;64022;53.652;9.792;2023-04-15T00:38:52;13.60;;;9.40;;
30243;SDS011;64022;53.652;9.792;2023-04-15T00:41:18;14.73;;;9.60;;
30243;SDS011;64022;53.652;9.792;2023-04-15T00:43:43;12.70;;;9.17;;
30243;SDS011;64022;53.652;9.792;2023-04-15T00:46:09;13.43;;;9.17;;
30243;SDS011;64022;53.652;9.792;2023-04-15T00:48:38;11.40;;;8.48;;
30243;SDS011;64022;53.652;9.792;2023-04-15T00:51:04;13.52;;;9.07;;
30243;SDS011;64022;53.652;9.792;2023-04-15T00:55:57;12.98;;;8.77;;
30243;SDS011;64022;53.652;9.792;2023-04-15T00:58:22;13.67;;;9.33;;
30243;SDS011;64022;53.652;9.792;2023-04-15T01:00:48;14.20;;;8.93;;
30243;SDS011;64022;53.652;9.792;2023-04-15T01:03:18;12.93;;;9.45;;
30243;SDS011;64022;53.652;9.792;2023-04-15T01:05:44;13.27;;;8.43;;
30243;SDS011;64022;53.652;9.792;2023-04-15T01:08:10;13.37;;;8.97;;
30243;SDS011;64022;53.652;9.792;2023-04-15T01:10:36;13.07;;;8.93;;
30243;SDS011;64022;53.652;9.792;2023-04-15T01:13:02;14.77;;;9.33;;
30243;SDS011;64022;53.652;9.792;2023-04-15T01:15:28;11.63;;;9.10;;
30243;SDS011;64022;53.652;9.792;2023-04-15T01:17:54;11.38;;;8.40;;
30243;SDS011;64022;53.652;9.792;2023-04-15T01:20:22;13.00;;;9.57;;
30243;SDS011;64022;53.652;9.792;2023-04-15T01:22:48;14.53;;;9.57;;
30243;SDS011;64022;53.652;9.792;2023-04-15T01:25:18;12.18;;;8.27;;
30243;SDS011;64022;53.652;9.792;2023-04-15T01:27:49;12.68;;;8.40;;
30243;SDS011;64022;53.652;9.792;2023-04-15T01:30:15;13.03;;;8.50;;
30243;SDS011;64022;53.652;9.792;2023-04-15T01:32:41;13.50;;;8.77;;
30243;SDS011;64022;53.652;9.792;2023-04-15T01:35:07;13.90;;;8.83;;
30243;SDS011;64022;53.652;9.792;2023-04-15T01:37:32;12.73;;;8.50;;
30243;SDS011;64022;53.652;9.792;2023-04-15T01:39:58;12.33;;;8.57;;
30243;SDS011;64022;53.652;9.792;2023-04-15T01:42:24;11.93;;;8.17;;
30243;SDS011;64022;53.652;9.792;2023-04-15T01:44:51;12.60;;;8.40;;
30243;SDS011;64022;53.652;9.792;2023-04-15T01:47:17;14.18;;;9.18;;
30243;SDS011;64022;53.652;9.792;2023-04-15T01:49:43;11.77;;;8.73;;
30243;SDS011;64022;53.652;9.792;2023-04-15T01:52:08;11.77;;;8.43;;
30243;SDS011;64022;53.652;9.792;2023-04-15T01:54:34;11.87;;;8.43;;
30243;SDS011;64022;53.652;9.792;2023-04-15T01:57:00;13.53;;;8.57;;
30243;SDS011;64022;53.652;9.792;2023-04-15T01:59:26;10.82;;;8.18;;
30243;SDS011;64022;53.652;9.792;2023-04-15T02:04:19;11.52;;;7.55;;
30243;SDS011;64022;53.652;9.792;2023-04-15T02:06:44;11.20;;;8.27;;
30243;SDS011;64022;53.652;9.792;2023-04-15T02:09:10;11.20;;;8.27;;
30243;SDS011;64022;53.652;9.792;2023-04-15T02:11:36;12.87;;;7.77;;
30243;SDS011;64022;53.652;9.792;2023-04-15T02:14:02;13.20;;;8.80;;
30243;SDS011;64022;53.652;9.792;2023-04-15T02:16:31;11.90;;;8.00;;
30243;SDS011;64022;53.652;9.792;2023-04-15T02:18:57;10.55;;;7.75;;
30243;SDS011;64022;53.652;9.792;2023-04-15T02:21:25;12.15;;;7.60;;
30243;SDS011;64022;53.652;9.792;2023-04-15T02:23:51;12.77;;;7.60;;
30243;SDS011;64022;53.652;9.792;2023-04-15T02:26:18;14.57;;;8.45;;
30243;SDS011;64022;53.652;9.792;2023-04-15T02:28:43;12.50;;;8.20;;
30243;SDS011;64022;53.652;9.792;2023-04-15T02:31:09;10.83;;;7.70;;
30243;SDS011;64022;53.652;9.792;2023-04-15T02:33:35;9.70;;;7.10;;
30243;SDS011;64022;53.652;9.792;2023-04-15T02:36:01;12.75;;;8.32;;
30243;SDS011;64022;53.652;9.792;2023-04-15T02:38:27;11.73;;;8.03;;
30243;SDS011;64022;53.652;9.792;2023-04-15T02:40:53;11.77;;;7.87;;
30243;SDS011;64022;53.652;9.792;2023-04-15T02:43:18;10.27;;;7.63;;
30243;SDS011;64022;53.652;9.792;2023-04-15T02:45:44;9.10;;;7.33;;
30243;SDS011;64022;53.652;9.792;2023-04-15T02:48:11;10.35;;;7.82;;
30243;SDS011;64022;53.652;9.792;2023-04-15T02:50:36;12.53;;;7.17;;
30243;SDS011;64022;53.652;9.792;2023-04-15T02:53:05;10.23;;;7.13;;
30243;SDS011;64022;53.652;9.792;2023-04-15T02:55:31;10.70;;;7.67;;
30243;SDS011;64022;53.652;9.792;2023-04-15T02:57:56;10.77;;;7.33;;
30243;SDS011;64022;53.652;9.792;2023-04-15T03:00:24;12.00;;;8.10;;
30243;SDS011;64022;53.652;9.792;2023-04-15T03:02:50;10.05;;;7.53;;
30243;SDS011;64022;53.652;9.792;2023-04-15T03:05:20;10.65;;;7.45;;
30243;SDS011;64022;53.652;9.792;2023-04-15T03:07:50;9.88;;;6.88;;
30243;SDS011;64022;53.652;9.792;2023-04-15T03:10:15;9.90;;;7.03;;
30243;SDS011;64022;53.652;9.792;2023-04-15T03:12:41;9.47;;;6.90;;
30243;SDS011;64022;53.652;9.792;2023-04-15T03:15:07;9.83;;;7.50;;
30243;SDS011;64022;53.652;9.792;2023-04-15T03:17:33;11.32;;;7.50;;
30243;SDS011;64022;53.652;9.792;2023-04-15T03:20:00;11.23;;;7.77;;
30243;SDS011;64022;53.652;9.792;2023-04-15T03:22:27;11.20;;;7.75;;
30243;SDS011;64022;53.652;9.792;2023-04-15T03:24:53;9.93;;;7.10;;
30243;SDS011;64022;53.652;9.792;2023-04-15T03:27:18;9.70;;;7.10;;
30243;SDS011;64022;53.652;9.792;2023-04-15T03:29:44;10.27;;;7.13;;
30243;SDS011;64022;53.652;9.792;2023-04-15T03:32:10;9.93;;;6.53;;
30243;SDS011;64022;53.652;9.792;2023-04-15T03:34:36;10.25;;;7.20;;
30243;SDS011;64022;53.652;9.792;2023-04-15T03:37:04;9.45;;;6.90;;
30243;SDS011;64022;53.652;9.792;2023-04-15T03:39:29;8.82;;;6.60;;
30243;SDS011;64022;53.652;9.792;2023-04-15T03:41:55;10.07;;;6.67;;
30243;SDS011;64022;53.652;9.792;2023-04-15T03:44:21;9.93;;;6.88;;
30243;SDS011;64022;53.652;9.792;2023-04-15T03:46:47;10.43;;;6.80;;
30243;SDS011;64022;53.652;9.792;2023-04-15T03:49:12;11.70;;;7.50;;
30243;SDS011;64022;53.652;9.792;2023-04-15T03:51:38;9.47;;;6.73;;
30243;SDS011;64022;53.652;9.792;2023-04-15T03:54:03;9.90;;;6.77;;
30243;SDS011;64022;53.652;9.792;2023-04-15T03:56:29;9.83;;;7.30;;
30243;SDS011;64022;53.652;9.792;2023-04-15T03:58:55;8.93;;;6.80;;
30243;SDS011;64022;53.652;9.792;2023-04-15T04:01:21;9.27;;;6.77;;
30243;SDS011;64022;53.652;9.792;2023-04-15T04:03:47;8.70;;;6.43;;
30243;SDS011;64022;53.652;9.792;2023-04-15T04:06:12;9.47;;;6.90;;
30243;SDS011;64022;53.652;9.792;2023-04-15T04:11:05;7.55;;;5.72;;
30243;SDS011;64022;53.652;9.792;2023-04-15T04:13:30;10.00;;;6.50;;
30243;SDS011;64022;53.652;9.792;2023-04-15T04:15:56;8.37;;;6.33;;
30243;SDS011;64022;53.652;9.792;2023-04-15T04:18:21;9.30;;;6.17;;
30243;SDS011;64022;53.652;9.792;2023-04-15T04:20:47;9.03;;;6.83;;
30243;SDS011;64022;53.652;9.792;2023-04-15T04:23:13;8.43;;;6.00;;
30243;SDS011;64022;53.652;9.792;2023-04-15T04:25:38;8.63;;;6.30;;
30243;SDS011;64022;53.652;9.792;2023-04-15T04:28:04;8.53;;;6.00;;
30243;SDS011;64022;53.652;9.792;2023-04-15T04:30:29;7.53;;;5.50;;
30243;SDS011;64022;53.652;9.792;2023-04-15T04:32:55;8.47;;;6.20;;
30243;SDS011;64022;53.652;9.792;2023-04-15T04:35:20;9.40;;;6.50;;
30243;SDS011;64022;53.652;9.792;2023-04-15T04:37:46;8.57;;;6.40;;
30243;SDS011;64022;53.652;9.792;2023-04-15T04:40:12;8.97;;;6.33;;
30243;SDS011;64022;53.652;9.792;2023-04-15T04:42:37;8.70;;;6.67;;
30243;SDS011;64022;53.652;9.792;2023-04-15T04:45:03;7.00;;;5.80;;
30243;SDS011;64022;53.652;9.792;2023-04-15T04:47:29;8.52;;;6.05;;
30243;SDS011;64022;53.652;9.792;2023-04-15T04:49:55;9.73;;;6.10;;
30243;SDS011;64022;53.652;9.792;2023-04-15T04:52:20;8.33;;;5.77;;
30243;SDS011;64022;53.652;9.792;2023-04-15T04:54:46;9.13;;;6.50;;
30243;SDS011;64022;53.652;9.792;2023-04-15T04:57:11;8.10;;;5.90;;
30243;SDS011;64022;53.652;9.792;2023-04-15T04:59:37;7.80;;;5.63;;
30243;SDS011;64022;53.652;9.792;2023-04-15T05:04:30;7.60;;;5.45;;
30243;SDS011;64022;53.652;9.792;2023-04-15T05:06:56;10.93;;;6.60;;
30243;SDS011;64022;53.652;9.792;2023-04-15T05:09:23;9.45;;;6.30;;
30243;SDS011;64022;53.652;9.792;2023-04-15T05:11:48;8.50;;;6.33;;
30243;SDS011;64022;53.652;9.792;2023-04-15T05:14:14;8.10;;;6.17;;
30243;SDS011;64022;53.652;9.792;2023-04-15T05:16:39;8.90;;;6.40;;
30243;SDS011;64022;53.652;9.792;2023-04-15T05:19:05;7.53;;;5.63;;
30243;SDS011;64022;53.652;9.792;2023-04-15T05:21:31;8.07;;;5.72;;
30243;SDS011;64022;53.652;9.792;2023-04-15T05:23:57;6.07;;;5.43;;
30243;SDS011;64022;53.652;9.792;2023-04-15T05:26:22;7.97;;;5.60;;
30243;SDS011;64022;53.652;9.792;2023-04-15T05:28:48;9.50;;;5.80;;
30243;SDS011;64022;53.652;9.792;2023-04-15T05:31:14;7.53;;;5.63;;
30243;SDS011;64022;53.652;9.792;2023-04-15T05:33:40;7.53;;;5.10;;
30243;SDS011;64022;53.652;9.792;2023-04-15T05:36:06;8.67;;;5.80;;
30243;SDS011;64022;53.652;9.792;2023-04-15T05:38:31;8.20;;;5.40;;
30243;SDS011;64022;53.652;9.792;2023-04-15T05:40:57;8.40;;;5.83;;
30243;SDS011;64022;53.652;9.792;2023-04-15T05:43:22;8.00;;;5.83;;
30243;SDS011;64022;53.652;9.792;2023-04-15T05:45:48;6.60;;;4.87;;
30243;SDS011;64022;53.652;9.792;2023-04-15T05:48:14;7.60;;;5.60;;
30243;SDS011;64022;53.652;9.792;2023-04-15T05:50:40;7.33;;;5.77;;
30243;SDS011;64022;53.652;9.792;2023-04-15T05:53:06;7.85;;;6.18;;
30243;SDS011;64022;53.652;9.792;2023-04-15T05:55:32;6.03;;;5.22;;
30243;SDS011;64022;53.652;9.792;2023-04-15T05:57:58;7.70;;;5.80;;
30243;SDS011;64022;53.652;9.792;2023-04-15T06:00:23;7.37;;;5.67;;
30243;SDS011;64022;53.652;9.792;2023-04-15T06:02:49;6.57;;;5.57;;
30243;SDS011;64022;53.652;9.792;2023-04-15T06:05:15;7.50;;;6.00;;
30243;SDS011;64022;53.652;9.792;2023-04-15T06:07:41;6.53;;;5.07;;
30243;SDS011;64022;53.652;9.792;2023-04-15T06:10:08;8.10;;;5.57;;
30243;SDS011;64022;53.652;9.792;2023-04-15T06:12:34;7.88;;;5.93;;
30243;SDS011;64022;53.652;9.792;2023-04-15T06:15:00;6.73;;;5.20;;
30243;SDS011;64022;53.652;9.792;2023-04-15T06:17:25;8.83;;;6.00;;
30243;SDS011;64022;53.652;9.792;2023-04-15T06:19:51;7.63;;;6.23;;
30243;SDS011;64022;53.652;9.792;2023-04-15T06:22:20;8.57;;;5.85;;
30243;SDS011;64022;53.652;9.792;2023-04-15T06:24:47;8.50;;;5.82;;
30243;SDS011;64022;53.652;9.792;2023-04-15T06:27:14;8.23;;;6.07;;
30243;SDS011;64022;53.652;9.792;2023-04-15T06:29:40;7.97;;;5.73;;
30243;SDS011;64022;53.652;9.792;2023-04-15T06:32:06;8.27;;;5.60;;
30243;SDS011;64022;53.652;9.792;2023-04-15T06:34:32;13.57;;;6.10;;
30243;SDS011;64022;53.652;9.792;2023-04-15T06:36:58;11.63;;;6.13;;
30243;SDS011;64022;53.652;9.792;2023-04-15T06:41:51;8.55;;;5.88;;
30243;SDS011;64022;53.652;9.792;2023-04-15T06:44:17;8.43;;;6.25;;
30243;SDS011;64022;53.652;9.792;2023-04-15T06:46:42;8.33;;;6.20;;
30243;SDS011;64022;53.652;9.792;2023-04-15T06:49:08;10.00;;;6.47;;
30243;SDS011;64022;53.652;9.792;2023-04-15T06:51:35;8.02;;;5.70;;
30243;SDS011;64022;53.652;9.792;2023-04-15T06:54:01;10.00;;;6.03;;
30243;SDS011;64022;53.652;9.792;2023-04-15T06:56:31;8.32;;;5.78;;
30243;SDS011;64022;53.652;9.792;2023-04-15T06:58:57;9.55;;;5.93;;
30243;SDS011;64022;53.652;9.792;2023-04-15T07:01:22;7.90;;;5.57;;
30243;SDS011;64022;53.652;9.792;2023-04-15T07:03:48;8.97;;;6.00;;
30243;SDS011;64022;53.652;9.792;2023-04-15T07:06:14;7.97;;;5.33;;
30243;SDS011;64022;53.652;9.792;2023-04-15T07:08:39;10.00;;;6.00;;
30243;SDS011;64022;53.652;9.792;2023-04-15T07:11:05;8.13;;;5.38;;
30243;SDS011;64022;53.652;9.792;2023-04-15T07:13:31;7.67;;;5.83;;
30243;SDS011;64022;53.652;9.792;2023-04-15T07:15:57;8.10;;;5.43;;
30243;SDS011;64022;53.652;9.792;2023-04-15T07:18:23;9.70;;;6.90;;
30243;SDS011;64022;53.652;9.792;2023-04-15T07:20:48;8.63;;;5.87;;
30243;SDS011;64022;53.652;9.792;2023-04-15T07:23:14;9.20;;;5.80;;
30243;SDS011;64022;53.652;9.792;2023-04-15T07:25:40;6.97;;;5.68;;
30243;SDS011;64022;53.652;9.792;2023-04-15T07:28:06;12.27;;;5.60;;
30243;SDS011;64022;53.652;9.792;2023-04-15T07:30:31;8.70;;;5.70;;
30243;SDS011;64022;53.652;9.792;2023-04-15T07:32:57;8.47;;;5.67;;
30243;SDS011;64022;53.652;9.792;2023-04-15T07:35:23;8.93;;;6.47;;
30243;SDS011;64022;53.652;9.792;2023-04-15T07:37:49;7.20;;;5.25;;
30243;SDS011;64022;53.652;9.792;2023-04-15T07:40:15;6.33;;;5.20;;
30243;SDS011;64022;53.652;9.792;2023-04-15T07:42:40;10.77;;;6.00;;
30243;SDS011;64022;53.652;9.792;2023-04-15T07:45:07;7.57;;;5.38;;
30243;SDS011;64022;53.652;9.792;2023-04-15T07:47:33;7.30;;;5.25;;
30243;SDS011;64022;53.652;9.792;2023-04-15T07:49:59;7.57;;;5.30;;
30243;SDS011;64022;53.652;9.792;2023-04-15T07:52:24;7.90;;;5.63;;
30243;SDS011;64022;53.652;9.792;2023-04-15T07:54:50;8.90;;;5.63;;
30243;SDS011;64022;53.652;9.792;2023-04-15T07:57:15;9.23;;;5.23;;
30243;SDS011;64022;53.652;9.792;2023-04-15T07:59:41;7.67;;;5.17;;
30243;SDS011;64022;53.652;9.792;2023-04-15T08:02:07;6.90;;;5.43;;
30243;SDS011;64022;53.652;9.792;2023-04-15T08:04:33;7.20;;;5.57;;
30243;SDS011;64022;53.652;9.792;2023-04-15T08:06:59;7.97;;;5.70;;
30243;SDS011;64022;53.652;9.792;2023-04-15T08:09:24;8.07;;;5.63;;
30243;SDS011;64022;53.652;9.792;2023-04-15T08:11:51;7.68;;;5.25;;
30243;SDS011;64022;53.652;9.792;2023-04-15T08:14:17;8.63;;;5.40;;
30243;SDS011;64022;53.652;9.792;2023-04-15T08:16:42;7.97;;;5.67;;
30243;SDS011;64022;53.652;9.792;2023-04-15T08:19:08;8.97;;;5.60;;
30243;SDS011;64022;53.652;9.792;2023-04-15T08:21:33;7.70;;;5.20;;
30243;SDS011;64022;53.652;9.792;2023-04-15T08:23:59;10.17;;;5.47;;
30243;SDS011;64022;53.652;9.792;2023-04-15T08:26:25;6.38;;;4.82;;
30243;SDS011;64022;53.652;9.792;2023-04-15T08:28:51;7.77;;;5.00;;
30243;SDS011;64022;53.652;9.792;2023-04-15T08:31:17;7.00;;;4.93;;
30243;SDS011;64022;53.652;9.792;2023-04-15T08:33:43;6.50;;;5.18;;
30243;SDS011;64022;53.652;9.792;2023-04-15T08:36:09;8.27;;;5.47;;
30243;SDS011;64022;53.652;9.792;2023-04-15T08:38:35;6.50;;;5.17;;
30243;SDS011;64022;53.652;9.792;2023-04-15T08:41:11;5.80;;;4.83;;
30243;SDS011;64022;53.652;9.792;2023-04-15T08:43:51;6.80;;;5.13;;
30243;SDS011;64022;53.652;9.792;2023-04-15T08:46:25;6.43;;;4.80;;
30243;SDS011;64022;53.652;9.792;2023-04-15T08:48:50;6.77;;;5.00;;
30243;SDS011;64022;53.652;9.792;2023-04-15T08:51:19;6.35;;;4.80;;
30243;SDS011;64022;53.652;9.792;2023-04-15T08:53:44;7.40;;;5.57;;
30243;SDS011;64022;53.652;9.792;2023-04-15T08:56:11;8.27;;;5.60;;
30243;SDS011;64022;53.652;9.792;2023-04-15T08:58:40;6.97;;;4.88;;
30243;SDS011;64022;53.652;9.792;2023-04-15T09:01:06;7.15;;;5.40;;
30243;SDS011;64022;53.652;9.792;2023-04-15T09:03:31;7.93;;;5.43;;
30243;SDS011;64022;53.652;9.792;2023-04-15T09:08:24;6.28;;;4.80;;
30243;SDS011;64022;53.652;9.792;2023-04-15T09:10:49;6.30;;;4.83;;
30243;SDS011;64022;53.652;9.792;2023-04-15T09:13:15;7.50;;;4.90;;
30243;SDS011;64022;53.652;9.792;2023-04-15T09:15:40;9.10;;;5.83;;
30243;SDS011;64022;53.652;9.792;2023-04-15T09:18:06;7.83;;;5.30;;
30243;SDS011;64022;53.652;9.792;2023-04-15T09:20:41;7.75;;;5.00;;
30243;SDS011;64022;53.652;9.792;2023-04-15T09:23:10;6.82;;;5.22;;
30243;SDS011;64022;53.652;9.792;2023-04-15T09:25:37;8.02;;;5.22;;
30243;SDS011;64022;53.652;9.792;2023-04-15T09:28:06;9.30;;;5.22;;
30243;SDS011;64022;53.652;9.792;2023-04-15T09:30:32;7.90;;;4.90;;
30243;SDS011;64022;53.652;9.792;2023-04-15T09:32:59;9.40;;;5.15;;
30243;SDS011;64022;53.652;9.792;2023-04-15T09:35:32;8.30;;;5.22;;
30243;SDS011;64022;53.652;9.792;2023-04-15T09:38:05;8.82;;;5.25;;
30243;SDS011;64022;53.652;9.792;2023-04-15T09:40:32;8.98;;;4.95;;
30243;SDS011;64022;53.652;9.792;2023-04-15T09:42:59;6.47;;;4.80;;
30243;SDS011;64022;53.652;9.792;2023-04-15T09:45:29;8.68;;;5.53;;
30243;SDS011;64022;53.652;9.792;2023-04-15T09:47:57;8.68;;;5.15;;
30243;SDS011;64022;53.652;9.792;2023-04-15T09:50:25;7.13;;;5.22;;
30243;SDS011;64022;53.652;9.792;2023-04-15T09:52:53;8.45;;;5.20;;
30243;SDS011;64022;53.652;9.792;2023-04-15T09:55:19;7.13;;;5.53;;
30243;SDS011;64022;53.652;9.792;2023-04-15T09:57:45;8.67;;;5.00;;
30243;SDS011;64022;53.652;9.792;2023-04-15T10:00:14;9.07;;;5.38;;
30243;SDS011;64022;53.652;9.792;2023-04-15T10:02:40;6.60;;;4.80;;
30243;SDS011;64022;53.652;9.792;2023-04-15T10:05:06;7.30;;;5.00;;
30243;SDS011;64022;53.652;9.792;2023-04-15T10:07:37;8.32;;;5.40;;
30243;SDS011;64022;53.652;9.792;2023-04-15T10:10:05;6.47;;;4.95;;
30243;SDS011;64022;53.652;9.792;2023-04-15T10:12:31;8.35;;;5.00;;
30243;SDS011;64022;53.652;9.792;2023-04-15T10:14:58;7.32;;;5.20;;
30243;SDS011;64022;53.652;9.792;2023-04-15T10:17:28;11.05;;;7.60;;
30243;SDS011;64022;53.652;9.792;2023-04-15T10:19:59;16.13;;;9.15;;
30243;SDS011;64022;53.652;9.792;2023-04-15T10:24:52;14.77;;;9.27;;
30243;SDS011;64022;53.652;9.792;2023-04-15T10:27:18;20.58;;;10.63;;
30243;SDS011;64022;53.652;9.792;2023-04-15T10:29:45;20.23;;;12.45;;
30243;SDS011;64022;53.652;9.792;2023-04-15T10:32:11;19.88;;;12.18;;
30243;SDS011;64022;53.652;9.792;2023-04-15T10:34:37;19.70;;;12.17;;
30243;SDS011;64022;53.652;9.792;2023-04-15T10:37:04;22.05;;;12.02;;
30243;SDS011;64022;53.652;9.792;2023-04-15T10:42:12;17.42;;;10.82;;
30243;SDS011;64022;53.652;9.792;2023-04-15T10:44:57;19.90;;;12.23;;
30243;SDS011;64022;53.652;9.792;2023-04-15T10:47:24;19.25;;;12.23;;
30243;SDS011;64022;53.652;9.792;2023-04-15T10:49:50;19.57;;;12.57;;
30243;SDS011;64022;53.652;9.792;2023-04-15T10:52:23;19.10;;;12.00;;
30243;SDS011;64022;53.652;9.792;2023-04-15T10:55:01;21.10;;;12.25;;
30243;SDS011;64022;53.652;9.792;2023-04-15T10:57:33;17.88;;;12.07;;
30243;SDS011;64022;53.652;9.792;2023-04-15T11:00:01;16.67;;;11.32;;
30243;SDS011;64022;53.652;9.792;2023-04-15T11:05:16;17.98;;;11.70;;
30243;SDS011;64022;53.652;9.792;2023-04-15T11:07:49;18.42;;;11.30;;
30243;SDS011;64022;53.652;9.792;2023-04-15T11:17:56;18.85;;;11.15;;
30243;SDS011;64022;53.652;9.792;2023-04-15T11:20:23;18.38;;;11.52;;
30243;SDS011;64022;53.652;9.792;2023-04-15T11:22:52;16.45;;;11.63;;
30243;SDS011;64022;53.652;9.792;2023-04-15T11:25:29;16.95;;;11.65;;
30243;SDS011;64022;53.652;9.792;2023-04-15T11:27:57;18.02;;;11.40;;
30243;SDS011;64022;53.652;9.792;2023-04-15T11:30:28;18.42;;;11.45;;
30243;SDS011;64022;53.652;9.792;2023-04-15T11:32:59;18.02;;;11.70;;
30243;SDS011;64022;53.652;9.792;2023-04-15T11:35:26;21.60;;;11.80;;
30243;SDS011;64022;53.652;9.792;2023-04-15T11:37:53;19.55;;;11.25;;
30243;SDS011;64022;53.652;9.792;2023-04-15T11:40:27;17.83;;;11.52;;
30243;SDS011;64022;53.652;9.792;2023-04-15T11:43:08;19.30;;;11.57;;
30243;SDS011;64022;53.652;9.792;2023-04-15T11:45:52;23.15;;;11.40;;
30243;SDS011;64022;53.652;9.792;2023-04-15T11:48:21;17.58;;;11.02;;
30243;SDS011;64022;53.652;9.792;2023-04-15T11:50:52;15.07;;;10.63;;
30243;SDS011;64022;53.652;9.792;2023-04-15T11:53:22;15.07;;;10.10;;
30243;SDS011;64022;53.652;9.792;2023-04-15T11:55:49;13.95;;;9.80;;
30243;SDS011;64022;53.652;9.792;2023-04-15T11:58:17;17.02;;;10.95;;
30243;SDS011;64022;53.652;9.792;2023-04-15T12:00:48;15.38;;;9.80;;
30243;SDS011;64022;53.652;9.792;2023-04-15T12:03:19;12.55;;;9.10;;
30243;SDS011;64022;53.652;9.792;2023-04-15T12:06:19;14.02;;;8.85;;
30243;SDS011;64022;53.652;9.792;2023-04-15T12:13:52;11.48;;;8.00;;
30243;SDS011;64022;53.652;9.792;2023-04-15T12:16:20;11.52;;;8.02;;
30243;SDS011;64022;53.652;9.792;2023-04-15T12:18:51;10.20;;;7.45;;
30243;SDS011;64022;53.652;9.792;2023-04-15T12:21:19;11.68;;;7.40;;
30243;SDS011;64022;53.652;9.792;2023-04-15T12:24:07;11.10;;;7.47;;
30243;SDS011;64022;53.652;9.792;2023-04-15T12:26:46;9.80;;;7.55;;
30243;SDS011;64022;53.652;9.792;2023-04-15T12:29:13;9.15;;;7.05;;
30243;SDS011;64022;53.652;9.792;2023-04-15T12:31:49;9.77;;;7.25;;
30243;SDS011;64022;53.652;9.792;2023-04-15T12:34:16;9.77;;;7.20;;
30243;SDS011;64022;53.652;9.792;2023-04-15T12:36:43;11.38;;;7.22;;
30243;SDS011;64022;53.652;9.792;2023-04-15T12:39:09;13.63;;;7.33;;
30243;SDS011;64022;53.652;9.792;2023-04-15T12:41:35;10.37;;;6.50;;
30243;SDS011;64022;53.652;9.792;2023-04-15T12:44:00;10.50;;;7.17;;
30243;SDS011;64022;53.652;9.792;2023-04-15T12:46:26;7.73;;;5.97;;
30243;SDS011;64022;53.652;9.792;2023-04-15T12:48:52;12.17;;;7.17;;
30243;SDS011;64022;53.652;9.792;2023-04-15T12:51:19;9.83;;;7.07;;
30243;SDS011;64022;53.652;9.792;2023-04-15T12:53:47;9.23;;;6.47;;
30243;SDS011;64022;53.652;9.792;2023-04-15T12:56:13;11.77;;;6.23;;
30243;SDS011;64022;53.652;9.792;2023-04-15T12:58:41;9.55;;;7.60;;
30243;SDS011;64022;53.652;9.792;2023-04-15T13:01:07;9.52;;;7.30;;
30243;SDS011;64022;53.652;9.792;2023-04-15T13:03:34;9.85;;;7.22;;
30243;SDS011;64022;53.652;9.792;2023-04-15T13:05:59;10.50;;;7.50;;
30243;SDS011;64022;53.652;9.792;2023-04-15T13:08:27;8.02;;;5.97;;
30243;SDS011;64022;53.652;9.792;2023-04-15T13:10:52;8.20;;;6.30;;
30243;SDS011;64022;53.652;9.792;2023-04-15T13:13:18;9.90;;;6.43;;
30243;SDS011;64022;53.652;9.792;2023-04-15T13:15:44;9.20;;;6.20;;
30243;SDS011;64022;53.652;9.792;2023-04-15T13:18:11;10.18;;;6.47;;
30243;SDS011;64022;53.652;9.792;2023-04-15T13:20:37;8.40;;;6.63;;
30243;SDS011;64022;53.652;9.792;2023-04-15T13:23:03;8.85;;;6.70;;
30243;SDS011;64022;53.652;9.792;2023-04-15T13:25:29;10.60;;;6.53;;
30243;SDS011;64022;53.652;9.792;2023-04-15T13:27:54;8.77;;;5.93;;
30243;SDS011;64022;53.652;9.792;2023-04-15T13:30:21;11.75;;;7.00;;
30243;SDS011;64022;53.652;9.792;2023-04-15T13:32:47;9.10;;;6.90;;
30243;SDS011;64022;53.652;9.792;2023-04-15T13:35:15;9.35;;;7.28;;
30243;SDS011;64022;53.652;9.792;2023-04-15T13:37:41;7.97;;;6.50;;
30243;SDS011;64022;53.652;9.792;2023-04-15T13:40:07;8.63;;;6.47;;
30243;SDS011;64022;53.652;9.792;2023-04-15T13:42:33;10.30;;;6.87;;
30243;SDS011;64022;53.652;9.792;2023-04-15T13:45:00;11.68;;;6.63;;
30243;SDS011;64022;53.652;9.792;2023-04-15T13:47:29;8.23;;;6.20;;
30243;SDS011;64022;53.652;9.792;2023-04-15T13:49:54;8.23;;;6.10;;
30243;SDS011;64022;53.652;9.792;2023-04-15T13:52:21;8.77;;;6.50;;
30243;SDS011;64022;53.652;9.792;2023-04-15T13:54:49;9.23;;;6.60;;
30243;SDS011;64022;53.652;9.792;2023-04-15T13:57:15;7.88;;;6.22;;
30243;SDS011;64022;53.652;9.792;2023-04-15T13:59:40;8.37;;;6.80;;
30243;SDS011;64022;53.652;9.792;2023-04-15T14:02:06;10.57;;;6.83;;
30243;SDS011;64022;53.652;9.792;2023-04-15T14:04:31;9.00;;;6.27;;
30243;SDS011;64022;53.652;9.792;2023-04-15T14:06:57;9.23;;;6.13;;
30243;SDS011;64022;53.652;9.792;2023-04-15T14:09:23;8.67;;;6.37;;
30243;SDS011;64022;53.652;9.792;2023-04-15T14:11:49;8.43;;;6.40;;
30243;SDS011;64022;53.652;9.792;2023-04-15T14:14:15;9.20;;;6.47;;
30243;SDS011;64022;53.652;9.792;2023-04-15T14:16:40;9.97;;;7.37;;
30243;SDS011;64022;53.652;9.792;2023-04-15T14:19:07;9.07;;;6.32;;
30243;SDS011;64022;53.652;9.792;2023-04-15T14:21:33;9.10;;;6.33;;
30243;SDS011;64022;53.652;9.792;2023-04-15T14:23:58;7.47;;;6.07;;
30243;SDS011;64022;53.652;9.792;2023-04-15T14:26:24;8.10;;;6.43;;
30243;SDS011;64022;53.652;9.792;2023-04-15T14:28:50;8.67;;;6.30;;
30243;SDS011;64022;53.652;9.792;2023-04-15T14:31:16;8.53;;;6.57;;
30243;SDS011;64022;53.652;9.792;2023-04-15T14:33:42;7.57;;;6.13;;
30243;SDS011;64022;53.652;9.792;2023-04-15T14:36:08;9.20;;;7.20;;
30243;SDS011;64022;53.652;9.792;2023-04-15T14:38:34;10.73;;;6.90;;
30243;SDS011;64022;53.652;9.792;2023-04-15T14:41:06;7.60;;;5.68;;
30243;SDS011;64022;53.652;9.792;2023-04-15T14:43:33;8.32;;;6.13;;
30243;SDS011;64022;53.652;9.792;2023-04-15T14:45:59;8.25;;;6.25;;
30243;SDS011;64022;53.652;9.792;2023-04-15T14:48:25;7.73;;;6.17;;
30243;SDS011;64022;53.652;9.792;2023-04-15T14:50:51;9.77;;;6.13;;
30243;SDS011;64022;53.652;9.792;2023-04-15T14:53:17;8.13;;;6.07;;
30243;SDS011;64022;53.652;9.792;2023-04-15T14:55:43;8.00;;;6.00;;
30243;SDS011;64022;53.652;9.792;2023-04-15T14:58:09;8.65;;;6.38;;
30243;SDS011;64022;53.652;9.792;2023-04-15T15:00:35;8.57;;;5.90;;
30243;SDS011;64022;53.652;9.792;2023-04-15T15:03:04;8.07;;;5.93;;
30243;SDS011;64022;53.652;9.792;2023-04-15T15:05:37;7.97;;;6.22;;
30243;SDS011;64022;53.652;9.792;2023-04-15T15:08:06;8.93;;;6.35;;
30243;SDS011;64022;53.652;9.792;2023-04-15T15:10:32;8.80;;;6.50;;
30243;SDS011;64022;53.652;9.792;2023-04-15T15:12:58;8.27;;;6.30;;
30243;SDS011;64022;53.652;9.792;2023-04-15T15:15:28;9.15;;;6.35;;